Time;durP1;ratioP1;P1;durP2;ratioP2;P2;SDS_P1;SDS_P2;PMS_P1;PMS_P2;Temp;Humidity;BMP_temperature;BMP_pressure;BME280_temperature;BME280_humidity;BME280_pressure;Samples;Min_cycle;Max_cycle;Signal;HPM_P1;HPM_P2
2021/11/11 00:02:07;;;;;;;;;;;;;;;;;;5127106;28;19900;-76
2021/11/11 00:04:34;;;;;;;;;;;;;;;;;;5130372;28;19914;-76
2021/11/11 00:07:01;;;;;;;;;;;;;;;;;;5122208;28;19957;-76
2021/11/11 00:09:26;;;;;;;;;;;;;;;;;;5126289;28;19907;-76
2021/11/11 00:11:52;;;;;;;;;;;;;;;;;;5126931;28;19908;-76
2021/11/11 00:14:17;;;;;;;;;;;;;;;;;;5124312;28;19906;-76
2021/11/11 00:16:42;;;;;;;;;;;;;;;;;;5133403;27;19971;-76
2021/11/11 00:19:07;;;;;;;;;;;;;;;;;;5125858;28;19904;-76
2021/11/11 00:21:32;;;;;;;;;;;;;;;;;;5126181;28;19938;-76
2021/11/11 00:23:58;;;;;;;;;;;;;;;;;;5130063;28;19906;-76
2021/11/11 00:26:23;;;;;;;;;;;;;;;;;;5124774;27;19907;-76
2021/11/11 00:28:49;;;;;;;;;;;;;;;;;;5128888;28;19912;-76
2021/11/11 00:31:15;;;;;;;;;;;;;;;;;;5114237;27;19900;-75
2021/11/11 00:33:40;;;;;;;;;;;;;;;;;;5124247;28;19934;-76
2021/11/11 00:36:06;;;;;;;;;;;;;;;;;;5131605;27;19922;-76
2021/11/11 00:38:31;;;;;;;;;;;;;;;;;;5125029;27;19918;-76
2021/11/11 00:40:56;;;;;;;;;;;;;;;;;;5127507;28;19955;-76
2021/11/11 00:43:22;;;;;;;;;;;;;;;;;;5124021;28;19899;-76
2021/11/11 00:45:47;;;;;;;;;;;;;;;;;;5124357;28;19900;-76
2021/11/11 00:48:13;;;;;;;;;;;;;;;;;;5131289;28;19915;-75
2021/11/11 00:50:38;;;;;;;;;;;;;;;;;;5126884;28;19911;-76
2021/11/11 00:53:06;;;;;;;;;;;;;;;;;;5130382;28;19906;-76
2021/11/11 00:55:32;;;;;;;;;;;;;;;;;;5126645;28;19912;-75
2021/11/11 00:58:05;;;;;;;;;;;;;;;;;;5125065;28;19999;-76
2021/11/11 01:00:30;;;;;;;;;;;;;;;;;;5114657;28;19900;-76
2021/11/11 01:02:56;;;;;;;;;;;;;;;;;;5117459;28;19900;-76
2021/11/11 01:05:21;;;;;;;;;;;;;;;;;;5131654;28;20008;-76
2021/11/11 01:07:47;;;;;;;;;;;;;;;;;;5106427;28;19907;-76
2021/11/11 01:10:12;;;;;;;;;;;;;;;;;;5123733;28;20064;-76
2021/11/11 01:12:37;;;;;;;;;;;;;;;;;;5130419;28;19900;-76
2021/11/11 01:15:02;;;;;;;;;;;;;;;;;;5125094;28;19900;-76
2021/11/11 01:17:28;;;;;;;;;;;;;;;;;;5130824;28;19923;-76
2021/11/11 01:19:53;;;;;;;;;;;;;;;;;;5124977;28;20160;-76
2021/11/11 01:22:18;;;;;;;;;;;;;;;;;;5127432;28;19948;-76
2021/11/11 01:24:43;;;;;;;;;;;;;;;;;;5131602;28;19937;-76
2021/11/11 01:27:09;;;;;;;;;;;;;;;;;;5124732;28;19911;-76
2021/11/11 01:29:34;;;;;;;;;;;;;;;;;;5132576;28;19900;-75
2021/11/11 01:32:00;;;;;;;;;;;;;;;;;;5123968;28;19900;-76
2021/11/11 01:34:27;;;;;;;;;;;;;;;;;;5108975;28;19900;-76
2021/11/11 01:36:53;;;;;;;;;;;;;;;;;;5130558;28;19908;-76
2021/11/11 01:39:19;;;;;;;;;;;;;;;;;;5123215;27;20185;-75
2021/11/11 01:41:56;;;;;;;;;;;;;;;;;;5133450;27;19907;-76
2021/11/11 01:44:22;;;;;;;;;;;;;;;;;;5119257;27;19911;-76
2021/11/11 01:46:47;;;;;;;;;;;;;;;;;;5130062;28;19896;-75
2021/11/11 01:49:16;;;;;;;;;;;;;;;;;;5116131;28;19907;-75
2021/11/11 01:51:41;;;;;;;;;;;;;;;;;;5130600;27;19896;-76
2021/11/11 01:54:07;;;;;;;;;;;;;;;;;;5134258;28;19911;-75
2021/11/11 01:56:32;;;;;;;;;;;;;;;;;;5112866;27;19923;-76
2021/11/11 01:59:15;;;;;;;;;;;;;;;;;;5129496;27;19911;-76
2021/11/11 02:01:40;;;;;;;;;;;;;;;;;;5127832;27;19993;-75
2021/11/11 02:04:05;;;;;;;;;;;;;;;;;;5111498;28;19908;-76
2021/11/11 02:06:50;;;;;;;;;;;;;;;;;;5125685;28;19903;-76
2021/11/11 02:09:21;;;;;;;;;;;;;;;;;;5133482;28;19984;-76
2021/11/11 02:12:07;;;;;;;;;;;;;;;;;;5130352;27;19908;-76
2021/11/11 02:14:33;;;;;;;;;;;;;;;;;;5112126;28;19907;-77
2021/11/11 02:17:01;;;;;;;;;;;;;;;;;;5134586;27;19904;-77
2021/11/11 02:19:55;;;;;;;;;;;;;;;;;;5125460;28;19904;-75
2021/11/11 02:22:20;;;;;;;;;;;;;;;;;;5132525;28;19907;-76
2021/11/11 02:24:50;;;;;;;;;;;;;;;;;;5129158;28;19976;-76
2021/11/11 02:27:15;;;;;;;;;;;;;;;;;;5130574;27;20189;-75
2021/11/11 02:29:40;;;;;;;;;;;;;;;;;;5134173;27;19924;-76
2021/11/11 02:32:06;;;;;;;;;;;;;;;;;;5112137;28;19910;-76
2021/11/11 02:34:36;;;;;;;;;;;;;;;;;;5127310;27;19899;-76
2021/11/11 02:37:02;;;;;;;;;;;;;;;;;;5133709;28;19915;-76
2021/11/11 02:39:45;;;;;;;;;;;;;;;;;;5125832;28;20404;-76
2021/11/11 02:42:10;;;;;;;;;;;;;;;;;;5133655;28;19915;-76
2021/11/11 02:44:36;;;;;;;;;;;;;;;;;;5127596;28;19968;-76
2021/11/11 02:47:01;;;;;;;;;;;;;;;;;;5143269;27;19986;-76
2021/11/11 02:49:35;;;;;;;;;;;;;;;;;;5133497;28;19899;-76
2021/11/11 02:52:00;;;;;;;;;;;;;;;;;;5127298;27;19926;-76
2021/11/11 02:54:25;;;;;;;;;;;;;;;;;;5134628;27;19969;-76
2021/11/11 02:56:50;;;;;;;;;;;;;;;;;;5128196;28;19919;-76
2021/11/11 02:59:16;;;;;;;;;;;;;;;;;;5127636;27;19925;-76
2021/11/11 03:01:41;;;;;;;;;;;;;;;;;;5136189;27;19900;-76
2021/11/11 03:04:06;;;;;;;;;;;;;;;;;;5127561;27;19900;-76
2021/11/11 03:06:31;;;;;;;;;;;;;;;;;;5133386;28;19904;-76
2021/11/11 03:08:57;;;;;;;;;;;;;;;;;;5127534;27;19906;-76
2021/11/11 03:11:29;;;;;;;;;;;;;;;;;;5129079;28;19904;-76
2021/11/11 03:13:59;;;;;;;;;;;;;;;;;;5133026;27;19922;-76
2021/11/11 03:16:24;;;;;;;;;;;;;;;;;;5127406;27;19903;-76
2021/11/11 03:18:49;;;;;;;;;;;;;;;;;;5134705;27;19915;-76
2021/11/11 03:21:15;;;;;;;;;;;;;;;;;;5128237;28;20216;-76
2021/11/11 03:23:40;;;;;;;;;;;;;;;;;;5127056;27;19935;-76
2021/11/11 03:26:07;;;;;;;;;;;;;;;;;;5129597;27;19911;-76
2021/11/11 03:28:37;;;;;;;;;;;;;;;;;;5125611;27;19943;-76
2021/11/11 03:31:03;;;;;;;;;;;;;;;;;;5128216;27;19900;-77
2021/11/11 03:33:29;;;;;;;;;;;;;;;;;;5133372;27;19911;-76
2021/11/11 03:35:54;;;;;;;;;;;;;;;;;;5128053;27;20002;-76
2021/11/11 03:38:20;;;;;;;;;;;;;;;;;;5133048;28;19939;-76
2021/11/11 03:40:45;;;;;;;;;;;;;;;;;;5110284;28;19899;-76
2021/11/11 03:43:22;;;;;;;;;;;;;;;;;;5126687;27;19921;-76
2021/11/11 03:45:56;;;;;;;;;;;;;;;;;;5115991;28;19908;-76
2021/11/11 03:48:21;;;;;;;;;;;;;;;;;;5128190;27;19908;-76
2021/11/11 03:50:47;;;;;;;;;;;;;;;;;;5132921;27;19904;-76
2021/11/11 03:53:14;;;;;;;;;;;;;;;;;;5125773;28;19911;-76
2021/11/11 03:55:40;;;;;;;;;;;;;;;;;;5126112;28;19904;-76
2021/11/11 03:58:06;;;;;;;;;;;;;;;;;;5126924;27;19995;-76
2021/11/11 04:00:34;;;;;;;;;;;;;;;;;;5118974;28;19908;-76
2021/11/11 04:03:02;;;;;;;;;;;;;;;;;;5130232;27;19903;-76
2021/11/11 04:05:28;;;;;;;;;;;;;;;;;;5124869;28;19919;-76
2021/11/11 04:07:56;;;;;;;;;;;;;;;;;;5123849;28;20335;-76
2021/11/11 04:10:21;;;;;;;;;;;;;;;;;;5130123;28;19915;-76
2021/11/11 04:12:49;;;;;;;;;;;;;;;;;;5125743;28;19926;-76
2021/11/11 04:15:15;;;;;;;;;;;;;;;;;;5115580;28;19938;-76
2021/11/11 04:17:40;;;;;;;;;;;;;;;;;;5124804;28;19967;-76
2021/11/11 04:20:06;;;;;;;;;;;;;;;;;;5126485;28;19900;-76
2021/11/11 04:22:31;;;;;;;;;;;;;;;;;;5128349;28;19934;-76
2021/11/11 04:24:58;;;;;;;;;;;;;;;;;;5124985;28;19907;-76
2021/11/11 04:27:32;;;;;;;;;;;;;;;;;;5115887;27;19922;-76
2021/11/11 04:32:34;;;;;;;;;;;;;;;;;;5125067;28;19938;-76
2021/11/11 04:35:00;;;;;;;;;;;;;;;;;;5125475;28;19915;-76
2021/11/11 04:38:16;;;;;;;;;;;;;;;;;;5124452;28;19908;-76
2021/11/11 04:43:33;;;;;;;;;;;;;;;;;;5123182;28;19990;-76
2021/11/11 05:01:43;;;;;;;;;;;;;;;;;;5124129;28;19899;-74
2021/11/11 05:04:09;;;;;;;;;;;;;;;;;;5125150;28;19914;-74
2021/11/11 05:06:35;;;;;;;;;;;;;;;;;;5129569;28;19910;-76
2021/11/11 05:09:00;;;;;;;;;;;;;;;;;;5124173;28;19900;-76
2021/11/11 05:11:26;;;;;;;;;;;;;;;;;;5131629;28;19900;-76
2021/11/11 05:13:53;;;;;;;;;;;;;;;;;;5130044;28;19908;-76
2021/11/11 05:16:18;;;;;;;;;;;;;;;;;;5113127;28;19933;-76
2021/11/11 05:18:43;;;;;;;;;;;;;;;;;;5136224;28;19903;-76
2021/11/11 05:21:10;;;;;;;;;;;;;;;;;;5128672;27;19939;-76
2021/11/11 05:23:36;;;;;;;;;;;;;;;;;;5135328;27;19915;-76
2021/11/11 05:26:02;;;;;;;;;;;;;;;;;;5127668;28;19931;-76
2021/11/11 05:28:27;;;;;;;;;;;;;;;;;;5119739;27;19903;-76
2021/11/11 05:30:54;;;;;;;;;;;;;;;;;;5134946;28;19908;-76
2021/11/11 05:33:20;;;;;;;;;;;;;;;;;;5128812;27;19918;-76
2021/11/11 05:35:45;;;;;;;;;;;;;;;;;;5135399;27;20240;-76
2021/11/11 05:38:10;;;;;;;;;;;;;;;;;;5128834;27;19911;-76
2021/11/11 05:40:35;;;;;;;;;;;;;;;;;;5128481;27;19986;-76
2021/11/11 05:43:02;;;;;;;;;;;;;;;;;;5133027;27;19926;-76
2021/11/11 05:45:27;;;;;;;;;;;;;;;;;;5126977;28;19904;-76
2021/11/11 05:47:56;;;;;;;;;;;;;;;;;;5117780;28;19899;-76
2021/11/11 05:50:22;;;;;;;;;;;;;;;;;;5129943;27;19900;-76
2021/11/11 05:52:47;;;;;;;;;;;;;;;;;;5110791;28;19908;-76
2021/11/11 05:55:13;;;;;;;;;;;;;;;;;;5153525;27;20169;-76
2021/11/11 05:57:39;;;;;;;;;;;;;;;;;;5111508;28;19920;-76
2021/11/11 06:00:04;;;;;;;;;;;;;;;;;;5134713;28;19908;-76
2021/11/11 06:02:40;;;;;;;;;;;;;;;;;;5132132;28;19908;-76
2021/11/11 06:05:05;;;;;;;;;;;;;;;;;;5125920;27;19967;-76
2021/11/11 06:07:31;;;;;;;;;;;;;;;;;;5131889;27;19912;-77
2021/11/11 06:09:56;;;;;;;;;;;;;;;;;;5106138;28;19900;-76
2021/11/11 06:12:21;;;;;;;;;;;;;;;;;;5126688;27;19941;-76
2021/11/11 06:14:47;;;;;;;;;;;;;;;;;;5126565;27;19907;-77
2021/11/11 06:17:12;;;;;;;;;;;;;;;;;;5131068;27;19918;-76
2021/11/11 06:19:37;;;;;;;;;;;;;;;;;;5131382;27;20007;-76
2021/11/11 06:22:02;;;;;;;;;;;;;;;;;;5129030;27;19915;-76
2021/11/11 06:24:28;;;;;;;;;;;;;;;;;;5126381;27;19999;-76
2021/11/11 06:26:54;;;;;;;;;;;;;;;;;;5132637;27;20265;-76
2021/11/11 06:29:19;;;;;;;;;;;;;;;;;;5127322;27;19908;-76
2021/11/11 06:31:46;;;;;;;;;;;;;;;;;;5133573;28;19908;-76
2021/11/11 06:34:18;;;;;;;;;;;;;;;;;;5113219;27;19974;-77
2021/11/11 06:36:43;;;;;;;;;;;;;;;;;;5129496;28;19912;-77
2021/11/11 06:39:09;;;;;;;;;;;;;;;;;;5132916;27;19938;-76
2021/11/11 06:41:34;;;;;;;;;;;;;;;;;;5131962;28;19957;-76
2021/11/11 06:43:59;;;;;;;;;;;;;;;;;;5133420;27;19915;-77
2021/11/11 06:46:24;;;;;;;;;;;;;;;;;;5131586;27;20218;-76
2021/11/11 06:48:50;;;;;;;;;;;;;;;;;;5134276;28;19920;-76
2021/11/11 06:51:15;;;;;;;;;;;;;;;;;;5132200;28;19975;-76
2021/11/11 06:53:40;;;;;;;;;;;;;;;;;;5126902;28;19907;-76
2021/11/11 06:56:05;;;;;;;;;;;;;;;;;;5131324;27;19990;-76
2021/11/11 06:58:30;;;;;;;;;;;;;;;;;;5128826;27;19904;-76
2021/11/11 07:00:59;;;;;;;;;;;;;;;;;;5127525;27;20157;-76
2021/11/11 07:03:24;;;;;;;;;;;;;;;;;;5127509;27;19908;-79
2021/11/11 07:05:49;;;;;;;;;;;;;;;;;;5128450;28;19912;-78
2021/11/11 07:08:14;;;;;;;;;;;;;;;;;;5132885;28;19900;-78
2021/11/11 07:10:39;;;;;;;;;;;;;;;;;;5132541;28;19975;-79
2021/11/11 07:13:05;;;;;;;;;;;;;;;;;;5133803;28;19907;-79
2021/11/11 07:15:30;;;;;;;;;;;;;;;;;;5132150;28;19915;-78
2021/11/11 07:17:56;;;;;;;;;;;;;;;;;;5129677;27;19991;-77
2021/11/11 07:20:21;;;;;;;;;;;;;;;;;;5131777;28;19907;-78
2021/11/11 07:22:47;;;;;;;;;;;;;;;;;;5133254;28;19904;-78
2021/11/11 07:25:12;;;;;;;;;;;;;;;;;;5133630;28;19908;-80
2021/11/11 07:27:37;;;;;;;;;;;;;;;;;;5133127;28;20617;-79
2021/11/11 07:30:03;;;;;;;;;;;;;;;;;;5131560;27;20075;-78
2021/11/11 07:32:29;;;;;;;;;;;;;;;;;;5130915;28;19963;-78
2021/11/11 07:34:54;;;;;;;;;;;;;;;;;;5131479;27;19907;-79
2021/11/11 07:37:19;;;;;;;;;;;;;;;;;;5133538;28;19979;-77
2021/11/11 07:39:44;;;;;;;;;;;;;;;;;;5132563;28;19904;-79
2021/11/11 07:42:11;;;;;;;;;;;;;;;;;;5123082;27;19923;-78
2021/11/11 07:44:36;;;;;;;;;;;;;;;;;;5130594;28;19922;-82
2021/11/11 07:47:01;;;;;;;;;;;;;;;;;;5131788;27;19908;-78
2021/11/11 07:49:27;;;;;;;;;;;;;;;;;;5128358;28;19905;-78
2021/11/11 07:51:52;;;;;;;;;;;;;;;;;;5131430;28;19972;-76
2021/11/11 07:54:17;;;;;;;;;;;;;;;;;;5131137;28;19910;-76
2021/11/11 07:56:43;;;;;;;;;;;;;;;;;;5132549;28;19946;-80
2021/11/11 07:59:09;;;;;;;;;;;;;;;;;;5131285;28;19904;-76
2021/11/11 08:01:34;;;;;;;;;;;;;;;;;;5129272;28;19971;-77
2021/11/11 08:03:59;;;;;;;;;;;;;;;;;;5127466;28;19967;-78
2021/11/11 08:06:25;;;;;;;;;;;;;;;;;;5127259;28;19904;-76
2021/11/11 08:08:50;;;;;;;;;;;;;;;;;;5131792;28;19900;-77
2021/11/11 08:11:15;;;;;;;;;;;;;;;;;;5128596;28;19900;-76
2021/11/11 08:13:40;;;;;;;;;;;;;;;;;;5128981;28;19899;-76
2021/11/11 08:16:06;;;;;;;;;;;;;;;;;;5128978;28;19904;-76
2021/11/11 08:18:31;;;;;;;;;;;;;;;;;;5129585;28;19908;-81
2021/11/11 08:20:56;;;;;;;;;;;;;;;;;;5130150;28;19929;-77
2021/11/11 08:23:21;;;;;;;;;;;;;;;;;;5130101;28;20122;-77
2021/11/11 08:25:47;;;;;;;;;;;;;;;;;;5130839;27;19899;-80
2021/11/11 08:28:13;;;;;;;;;;;;;;;;;;5126546;27;19921;-81
2021/11/11 08:30:38;;;;;;;;;;;;;;;;;;5128503;28;19942;-79
2021/11/11 08:33:03;;;;;;;;;;;;;;;;;;5130835;28;19955;-78
2021/11/11 08:35:28;;;;;;;;;;;;;;;;;;5129173;28;19911;-81
2021/11/11 08:37:54;;;;;;;;;;;;;;;;;;5129872;28;19983;-80
2021/11/11 08:40:19;;;;;;;;;;;;;;;;;;5126688;28;19963;-79
2021/11/11 08:42:44;;;;;;;;;;;;;;;;;;5130176;28;19915;-79
2021/11/11 08:45:09;;;;;;;;;;;;;;;;;;5128397;28;19909;-80
2021/11/11 08:47:35;;;;;;;;;;;;;;;;;;5129562;28;19900;-78
2021/11/11 08:50:00;;;;;;;;;;;;;;;;;;5129697;28;19906;-80
2021/11/11 08:52:25;;;;;;;;;;;;;;;;;;5129970;28;19932;-79
2021/11/11 08:54:51;;;;;;;;;;;;;;;;;;5129356;28;19927;-80
2021/11/11 08:57:16;;;;;;;;;;;;;;;;;;5129210;28;19959;-79
2021/11/11 08:59:41;;;;;;;;;;;;;;;;;;5130390;28;19904;-79
2021/11/11 09:02:06;;;;;;;;;;;;;;;;;;5130224;28;19915;-79
2021/11/11 09:04:32;;;;;;;;;;;;;;;;;;5126021;28;19900;-77
2021/11/11 09:07:00;;;;;;;;;;;;;;;;;;5127376;28;19923;-77
2021/11/11 09:09:25;;;;;;;;;;;;;;;;;;5128805;28;19927;-80
2021/11/11 09:11:50;;;;;;;;;;;;;;;;;;5127032;28;19918;-83
2021/11/11 09:14:15;;;;;;;;;;;;;;;;;;5128308;28;19899;-82
2021/11/11 09:16:41;;;;;;;;;;;;;;;;;;5127659;28;19950;-78
2021/11/11 09:19:06;;;;;;;;;;;;;;;;;;5130351;28;19916;-82
2021/11/11 09:21:31;;;;;;;;;;;;;;;;;;5130778;28;19911;-81
2021/11/11 09:23:56;;;;;;;;;;;;;;;;;;5128250;28;19908;-81
2021/11/11 09:26:21;;;;;;;;;;;;;;;;;;5130297;28;19912;-82
2021/11/11 09:28:50;;;;;;;;;;;;;;;;;;5129226;28;19908;-81
2021/11/11 09:31:15;;;;;;;;;;;;;;;;;;5111370;28;19968;-78
2021/11/11 09:33:41;;;;;;;;;;;;;;;;;;5130329;28;19942;-79
2021/11/11 09:36:06;;;;;;;;;;;;;;;;;;5128519;28;19915;-78
2021/11/11 09:38:31;;;;;;;;;;;;;;;;;;5129500;28;20091;-77
2021/11/11 09:40:57;;;;;;;;;;;;;;;;;;5127754;28;19918;-78
2021/11/11 09:43:22;;;;;;;;;;;;;;;;;;5128697;28;20245;-80
2021/11/11 09:45:47;;;;;;;;;;;;;;;;;;5127378;28;19900;-78
2021/11/11 09:48:14;;;;;;;;;;;;;;;;;;5130562;28;19967;-79
2021/11/11 09:50:39;;;;;;;;;;;;;;;;;;5126181;28;19915;-78
2021/11/11 09:53:12;;;;;;;;;;;;;;;;;;5130746;28;19926;-78
2021/11/11 10:01:06;;;;;;;;;;;;;;;;;;5120756;28;19908;-79
2021/11/11 10:03:31;;;;;;;;;;;;;;;;;;5131014;28;19927;-78
2021/11/11 10:05:56;;;;;;;;;;;;;;;;;;5113532;27;19934;-79
2021/11/11 10:08:21;;;;;;;;;;;;;;;;;;5132646;28;19908;-82
2021/11/11 10:10:48;;;;;;;;;;;;;;;;;;5133880;28;19904;-80
2021/11/11 10:13:13;;;;;;;;;;;;;;;;;;5129136;28;19923;-84
2021/11/11 10:15:38;;;;;;;;;;;;;;;;;;5132364;28;20126;-81
2021/11/11 10:18:03;;;;;;;;;;;;;;;;;;5132240;28;19912;-80
2021/11/11 10:20:28;;;;;;;;;;;;;;;;;;5129562;28;19899;-78
2021/11/11 10:22:55;;;;;;;;;;;;;;;;;;5131063;28;19900;-79
2021/11/11 10:25:20;;;;;;;;;;;;;;;;;;5131892;28;19918;-78
2021/11/11 10:27:51;;;;;;;;;;;;;;;;;;5131504;28;19995;-80
2021/11/11 10:30:16;;;;;;;;;;;;;;;;;;5133640;27;19923;-79
2021/11/11 10:32:41;;;;;;;;;;;;;;;;;;5128601;28;19899;-76
2021/11/11 10:35:07;;;;;;;;;;;;;;;;;;5132767;27;19960;-81
2021/11/11 10:37:32;;;;;;;;;;;;;;;;;;5130712;28;19927;-78
2021/11/11 10:39:57;;;;;;;;;;;;;;;;;;5127233;28;19919;-79
2021/11/11 10:42:22;;;;;;;;;;;;;;;;;;5132281;28;19900;-78
2021/11/11 10:44:48;;;;;;;;;;;;;;;;;;5133041;28;19907;-77
2021/11/11 10:47:14;;;;;;;;;;;;;;;;;;5131889;28;19908;-78
2021/11/11 10:49:40;;;;;;;;;;;;;;;;;;5133154;28;19908;-79
2021/11/11 10:52:05;;;;;;;;;;;;;;;;;;5132654;28;19925;-77
2021/11/11 10:54:30;;;;;;;;;;;;;;;;;;5130841;28;20122;-78
2021/11/11 10:56:55;;;;;;;;;;;;;;;;;;5132696;28;19915;-77
2021/11/11 10:59:21;;;;;;;;;;;;;;;;;;5131886;28;19939;-77
2021/11/11 11:01:46;;;;;;;;;;;;;;;;;;5127835;27;19906;-78
2021/11/11 11:04:11;;;;;;;;;;;;;;;;;;5131265;28;19944;-77
2021/11/11 11:06:37;;;;;;;;;;;;;;;;;;5131626;28;19922;-78
2021/11/11 11:09:02;;;;;;;;;;;;;;;;;;5132494;27;19935;-78
2021/11/11 11:11:28;;;;;;;;;;;;;;;;;;5129812;28;20178;-79
2021/11/11 11:13:54;;;;;;;;;;;;;;;;;;5131328;28;19963;-78
2021/11/11 11:16:19;;;;;;;;;;;;;;;;;;5132975;28;19914;-79
2021/11/11 11:18:44;;;;;;;;;;;;;;;;;;5131690;28;19900;-79
2021/11/11 11:21:09;;;;;;;;;;;;;;;;;;5132054;27;19899;-78
2021/11/11 11:23:35;;;;;;;;;;;;;;;;;;5132710;28;20265;-78
2021/11/11 11:26:00;;;;;;;;;;;;;;;;;;5130536;28;19936;-77
2021/11/11 11:28:26;;;;;;;;;;;;;;;;;;5134206;27;20283;-78
2021/11/11 11:30:53;;;;;;;;;;;;;;;;;;5132287;28;19996;-77
2021/11/11 11:33:30;;;;;;;;;;;;;;;;;;5132461;28;19900;-77
2021/11/11 11:35:55;;;;;;;;;;;;;;;;;;5130683;27;19914;-77
2021/11/11 11:38:20;;;;;;;;;;;;;;;;;;5132090;28;19904;-78
2021/11/11 11:40:46;;;;;;;;;;;;;;;;;;5113632;28;19963;-77
2021/11/11 11:43:11;;;;;;;;;;;;;;;;;;5131623;28;19956;-77
2021/11/11 11:45:37;;;;;;;;;;;;;;;;;;5131690;28;19908;-77
2021/11/11 11:48:17;;;;;;;;;;;;;;;;;;5128512;28;19900;-77
2021/11/11 11:50:49;;;;;;;;;;;;;;;;;;5128843;28;20185;-77
2021/11/11 11:53:16;;;;;;;;;;;;;;;;;;5128079;28;19929;-77
2021/11/11 11:55:49;;;;;;;;;;;;;;;;;;5127509;27;20074;-78
2021/11/11 11:58:29;;;;;;;;;;;;;;;;;;5130741;28;19907;-78
2021/11/11 12:01:10;;;;;;;;;;;;;;;;;;5131238;27;20072;-78
2021/11/11 12:07:10;;;;;;;;;;;;;;;;;;5129264;28;20686;-78
2021/11/11 12:17:04;;;;;;;;;;;;;;;;;;5122663;27;19911;-78
2021/11/11 12:38:44;;;;;;;;;;;;;;;;;;5127042;28;19904;-80
2021/11/11 12:41:09;;;;;;;;;;;;;;;;;;5128774;28;19900;-78
2021/11/11 12:43:35;;;;;;;;;;;;;;;;;;5129742;28;19968;-78
2021/11/11 12:46:00;;;;;;;;;;;;;;;;;;5129296;28;19908;-78
2021/11/11 12:48:26;;;;;;;;;;;;;;;;;;5130263;28;20244;-77
2021/11/11 12:50:51;;;;;;;;;;;;;;;;;;5130844;28;19900;-77
2021/11/11 12:53:17;;;;;;;;;;;;;;;;;;5129808;28;19968;-76
2021/11/11 12:55:43;;;;;;;;;;;;;;;;;;5129531;28;19917;-78
2021/11/11 12:58:08;;;;;;;;;;;;;;;;;;5129571;28;19911;-79
2021/11/11 13:00:33;;;;;;;;;;;;;;;;;;5131634;28;19910;-79
2021/11/11 13:02:59;;;;;;;;;;;;;;;;;;5130356;28;19985;-82
2021/11/11 13:05:24;;;;;;;;;;;;;;;;;;5129771;28;19908;-76
2021/11/11 13:07:49;;;;;;;;;;;;;;;;;;5130392;28;19904;-80
2021/11/11 13:10:20;;;;;;;;;;;;;;;;;;5129605;28;19901;-79
2021/11/11 13:12:45;;;;;;;;;;;;;;;;;;5129459;28;19911;-77
2021/11/11 13:15:13;;;;;;;;;;;;;;;;;;5130260;28;19908;-78
2021/11/11 13:17:40;;;;;;;;;;;;;;;;;;5111424;28;19922;-77
2021/11/11 13:20:06;;;;;;;;;;;;;;;;;;5130167;28;19946;-78
2021/11/11 13:22:38;;;;;;;;;;;;;;;;;;5128950;28;20120;-82
2021/11/11 13:25:17;;;;;;;;;;;;;;;;;;5110834;28;19971;-79
2021/11/11 14:00:20;;;;;;;;;;;;;;;;;;5132366;27;20133;-76
2021/11/11 16:26:50;;;;;;;;;;;;;;;;;;5129362;28;19963;-79
2021/11/11 16:29:16;;;;;;;;;;;;;;;;;;5126954;27;19915;-79
2021/11/11 16:31:41;;;;;;;;;;;;;;;;;;5123078;27;19911;-76
2021/11/11 16:34:06;;;;;;;;;;;;;;;;;;5127257;27;19911;-80
2021/11/11 16:36:33;;;;;;;;;;;;;;;;;;5119000;28;19916;-78
2021/11/11 16:38:58;;;;;;;;;;;;;;;;;;5126392;28;19903;-77
2021/11/11 16:41:24;;;;;;;;;;;;;;;;;;5124308;28;19983;-78
2021/11/11 16:43:50;;;;;;;;;;;;;;;;;;5124756;27;19908;-77
2021/11/11 16:46:15;;;;;;;;;;;;;;;;;;5127781;28;19939;-78
2021/11/11 16:48:40;;;;;;;;;;;;;;;;;;5125672;28;19910;-76
2021/11/11 16:51:05;;;;;;;;;;;;;;;;;;5130770;28;19908;-77
2021/11/11 16:53:31;;;;;;;;;;;;;;;;;;5121077;28;19919;-77
2021/11/11 16:55:56;;;;;;;;;;;;;;;;;;5125678;28;20423;-76
2021/11/11 16:58:21;;;;;;;;;;;;;;;;;;5131039;28;19916;-77
2021/11/11 17:00:46;;;;;;;;;;;;;;;;;;5124013;28;19918;-76
2021/11/11 17:03:13;;;;;;;;;;;;;;;;;;5131036;28;19904;-76
2021/11/11 17:05:38;;;;;;;;;;;;;;;;;;5126140;28;19916;-78
2021/11/11 17:08:03;;;;;;;;;;;;;;;;;;5125544;28;20303;-76
2021/11/11 17:10:29;;;;;;;;;;;;;;;;;;5133179;28;19899;-76
2021/11/11 17:12:55;;;;;;;;;;;;;;;;;;5128120;28;19906;-77
2021/11/11 17:15:21;;;;;;;;;;;;;;;;;;5133602;27;19907;-77
2021/11/11 17:17:48;;;;;;;;;;;;;;;;;;5129623;27;19931;-77
2021/11/11 17:20:17;;;;;;;;;;;;;;;;;;5129201;28;20454;-77
2021/11/11 17:22:47;;;;;;;;;;;;;;;;;;5133289;27;19915;-77
2021/11/11 17:28:14;;;;;;;;;;;;;;;;;;5128726;27;19899;-78
2021/11/11 17:30:39;;;;;;;;;;;;;;;;;;5128867;27;19904;-78
2021/11/11 17:33:05;;;;;;;;;;;;;;;;;;5127669;28;19908;-77
2021/11/11 17:35:30;;;;;;;;;;;;;;;;;;5131314;27;19929;-77
2021/11/11 17:37:55;;;;;;;;;;;;;;;;;;5128455;27;19950;-77
2021/11/11 17:40:21;;;;;;;;;;;;;;;;;;5125623;28;19904;-77
2021/11/11 17:42:46;;;;;;;;;;;;;;;;;;5133708;28;19908;-77
2021/11/11 17:45:12;;;;;;;;;;;;;;;;;;5127697;28;19915;-78
2021/11/11 17:47:38;;;;;;;;;;;;;;;;;;5130486;27;19907;-77
2021/11/11 17:50:05;;;;;;;;;;;;;;;;;;5120748;28;19908;-77
2021/11/11 17:52:31;;;;;;;;;;;;;;;;;;5110504;27;19949;-77
2021/11/11 17:54:58;;;;;;;;;;;;;;;;;;5133376;27;19908;-77
2021/11/11 17:57:24;;;;;;;;;;;;;;;;;;5127321;27;19918;-77
2021/11/11 17:59:49;;;;;;;;;;;;;;;;;;5132278;28;19900;-77
2021/11/11 18:02:25;;;;;;;;;;;;;;;;;;5128126;27;19932;-77
2021/11/11 18:04:51;;;;;;;;;;;;;;;;;;5127521;27;19904;-77
2021/11/11 18:07:20;;;;;;;;;;;;;;;;;;5134620;27;19931;-77
2021/11/11 18:09:54;;;;;;;;;;;;;;;;;;5129432;27;19929;-77
2021/11/11 18:12:26;;;;;;;;;;;;;;;;;;5128089;27;19900;-78
2021/11/11 18:14:57;;;;;;;;;;;;;;;;;;5126038;28;19907;-77
2021/11/11 18:17:23;;;;;;;;;;;;;;;;;;5127549;27;19919;-78
2021/11/11 18:19:49;;;;;;;;;;;;;;;;;;5132212;28;19937;-78
2021/11/11 18:22:14;;;;;;;;;;;;;;;;;;5126147;28;19935;-78
2021/11/11 18:24:39;;;;;;;;;;;;;;;;;;5122198;28;19920;-78
2021/11/11 18:27:05;;;;;;;;;;;;;;;;;;5133245;27;19923;-78
2021/11/11 18:29:42;;;;;;;;;;;;;;;;;;5129288;27;19900;-78
2021/11/11 18:32:10;;;;;;;;;;;;;;;;;;5115292;28;19930;-79
2021/11/11 18:34:37;;;;;;;;;;;;;;;;;;5130079;27;19906;-77
2021/11/11 18:37:08;;;;;;;;;;;;;;;;;;5130251;27;19923;-76
2021/11/11 18:39:33;;;;;;;;;;;;;;;;;;5132423;27;19904;-77
2021/11/11 18:41:58;;;;;;;;;;;;;;;;;;5127954;28;19919;-78
2021/11/11 18:44:30;;;;;;;;;;;;;;;;;;5134786;27;19976;-77
2021/11/11 18:46:57;;;;;;;;;;;;;;;;;;5129467;28;19900;-77
2021/11/11 18:49:23;;;;;;;;;;;;;;;;;;5127720;27;19903;-78
2021/11/11 18:51:48;;;;;;;;;;;;;;;;;;5131622;27;20129;-77
2021/11/11 18:54:13;;;;;;;;;;;;;;;;;;5127113;27;20218;-77
2021/11/11 18:56:39;;;;;;;;;;;;;;;;;;5129659;27;19919;-77
2021/11/11 18:59:04;;;;;;;;;;;;;;;;;;5130337;27;19914;-77
2021/11/11 19:01:29;;;;;;;;;;;;;;;;;;5128504;27;19964;-77
2021/11/11 19:03:59;;;;;;;;;;;;;;;;;;5131282;28;19935;-77
2021/11/11 19:06:50;;;;;;;;;;;;;;;;;;5126933;27;19912;-77
2021/11/11 19:11:38;;;;;;;;;;;;;;;;;;5132609;28;19906;-77
2021/11/11 19:14:06;;;;;;;;;;;;;;;;;;5126926;27;19900;-79
2021/11/11 19:16:35;;;;;;;;;;;;;;;;;;5134021;27;19904;-78
2021/11/11 19:19:04;;;;;;;;;;;;;;;;;;5127775;27;19907;-78
2021/11/11 19:21:30;;;;;;;;;;;;;;;;;;5128056;27;19900;-75
2021/11/11 19:23:56;;;;;;;;;;;;;;;;;;5132470;28;19904;-79
2021/11/11 19:26:21;;;;;;;;;;;;;;;;;;5109884;27;19926;-77
2021/11/11 19:28:46;;;;;;;;;;;;;;;;;;5133438;27;19904;-78
2021/11/11 19:31:12;;;;;;;;;;;;;;;;;;5128188;27;19908;-78
2021/11/11 19:33:39;;;;;;;;;;;;;;;;;;5130214;27;19900;-79
2021/11/11 19:36:31;;;;;;;;;;;;;;;;;;5131557;27;19917;-79
2021/11/11 19:44:13;;;;;;;;;;;;;;;;;;5133383;28;19903;-78
2021/11/11 19:52:09;;;;;;;;;;;;;;;;;;5132369;28;19900;-78
2021/11/11 20:07:19;;;;;;;;;;;;;;;;;;5127187;28;19911;-79
2021/11/11 20:10:47;;;;;;;;;;;;;;;;;;5127094;27;19975;-79
2021/11/11 20:12:57;;;;;;;;;;;;;;;;;;5123072;28;19900;-78
2021/11/11 20:46:54;;;;;;;;;;;;;;;;;;5126491;27;19900;-78
2021/11/11 21:02:07;;;;;;;;;;;;;;;;;;5124667;28;19943;-78
2021/11/11 21:04:34;;;;;;;;;;;;;;;;;;5124205;28;19922;-78
2021/11/11 21:07:09;;;;;;;;;;;;;;;;;;5122205;28;19904;-78
2021/11/11 21:12:28;;;;;;;;;;;;;;;;;;5140572;27;19900;-77
2021/11/11 21:17:42;;;;;;;;;;;;;;;;;;5132480;28;19983;-77
2021/11/11 21:20:10;;;;;;;;;;;;;;;;;;5126800;28;19982;-78
2021/11/11 21:22:35;;;;;;;;;;;;;;;;;;5126614;28;19935;-77
2021/11/11 21:25:00;;;;;;;;;;;;;;;;;;5128681;28;19914;-77
2021/11/11 21:27:27;;;;;;;;;;;;;;;;;;5107700;28;19911;-77
2021/11/11 21:29:53;;;;;;;;;;;;;;;;;;5129480;28;19941;-78
2021/11/11 21:32:18;;;;;;;;;;;;;;;;;;5126021;28;19899;-77
2021/11/11 21:42:28;;;;;;;;;;;;;;;;;;5123603;28;19906;-77
2021/11/11 21:44:55;;;;;;;;;;;;;;;;;;5130803;28;19907;-77
2021/11/11 21:47:20;;;;;;;;;;;;;;;;;;5126130;28;19900;-77
2021/11/11 21:49:45;;;;;;;;;;;;;;;;;;5132165;28;19907;-77
2021/11/11 21:52:14;;;;;;;;;;;;;;;;;;5124995;28;19942;-77
2021/11/11 21:54:44;;;;;;;;;;;;;;;;;;5126294;27;19987;-77
2021/11/11 21:57:14;;;;;;;;;;;;;;;;;;5132776;28;19931;-75
2021/11/11 21:59:50;;;;;;;;;;;;;;;;;;5129197;28;19911;-77
2021/11/11 22:26:34;;;;;;;;;;;;;;;;;;5133361;28;19919;-77
2021/11/11 22:29:22;;;;;;;;;;;;;;;;;;5132697;27;19904;-77